Medal — EBYI — position and weather

sailwx.info

Track history (hours):
 
Tides and Currents Weather Stations Pressure Air Temp Water Temp Dewpoint Dewpoint Depression Visibility Wind Speed Wind Dir Waves Ship Positions

Medal

Last reported at 2017-Nov-19 08:16 UTC. Time now 2017-Nov-24 14:54 UTC.
Position N 37°42' W 000°24'.

Length 90 m; draft 5.6 m.

Type: Cargo ship. MMSI: 225370000.

Date/timePositionNaut miles runAvg speedWind from/ knotsBaromVisibWave heightAir tempDewpointWater temp
2017-Nov-19 08:16N 37°42' W 000°24'312.4
2017-Nov-19 08:00N 37°40' W 000°26'2112.1
2017-Nov-19 06:17N 37°24' W 000°44'411.8
2017-Nov-19 05:57N 37°22' W 000°48'23211.7
2017-Nov-18 10:05N 35°59' W 005°18'113.3
2017-Nov-18 10:00N 35°59' W 005°19'  
2017-Nov-12 00:31N 28°28' W 016°15'0 0.0
2017-Nov-12 00:19N 28°28' W 016°15'0 0.0
2017-Nov-11 23:24N 28°28' W 016°15'0 0.0
2017-Nov-11 22:54N 28°28' W 016°15'0 0.0
2017-Nov-11 22:30N 28°28' W 016°15'0 0.0
2017-Nov-11 22:00N 28°28' W 016°15'0 0.0
2017-Nov-11 21:29N 28°28' W 016°15'0 0.0
2017-Nov-11 20:17N 28°28' W 016°15'0 0.0
2017-Nov-11 18:58N 28°28' W 016°15'0 0.0
2017-Nov-11 17:31N 28°28' W 016°15'0 0.0
2017-Nov-11 17:28N 28°28' W 016°15'0 0.0
2017-Nov-11 16:09N 28°28' W 016°15'0 0.0
2017-Nov-11 14:11N 28°28' W 016°15'0 0.0
2017-Nov-11 13:59N 28°28' W 016°15'0 0.0
2017-Nov-11 13:29N 28°28' W 016°15'0 0.0
2017-Nov-11 12:59N 28°28' W 016°15'0 0.0
2017-Nov-11 12:29N 28°28' W 016°15'0 0.0
2017-Nov-11 11:58N 28°28' W 016°15'0 0.0
2017-Nov-11 11:28N 28°28' W 016°15'0 0.0
2017-Nov-11 10:55N 28°28' W 016°15'0 0.0
2017-Nov-11 10:28N 28°28' W 016°15'18 0.5
2017-Nov-09 22:41N 28°21' W 015°56'7 8.0
2017-Nov-09 21:45N 28°15' W 015°51'311.5
2017-Nov-09 21:30N 28°15' W 015°47'611.4
2017-Nov-09 21:00N 28°15' W 015°41'611.2
2017-Nov-09 20:30N 28°15' W 015°35'611.6
2017-Nov-09 20:00N 28°15' W 015°28'611.4
2017-Nov-09 19:30N 28°15' W 015°22'5 9.9
2017-Nov-09 19:00N 28°11' W 015°22'4 8.1
2017-Nov-09 18:30N 28°07' W 015°23'5 9.8
2017-Nov-09 18:00N 28°02' W 015°22'510.2
2017-Nov-09 17:30N 27°57' W 015°20'  
Track history (hours):
 
Tides and Currents Weather Stations Pressure Air Temp Water Temp Dewpoint Dewpoint Depression Visibility Wind Speed Wind Dir Waves Ship Positions

Medal

Last reported at 2017-Nov-19 08:16 UTC. Time now 2017-Nov-24 14:54 UTC.
Position N 37°42' W 000°24'.

Length 90 m; draft 5.6 m.

Type: Cargo ship. MMSI: 225370000.

Date/timePositionNaut miles runAvg speedWind from/ knotsBaromVisibWave heightAir tempDewpointWater temp
2017-Nov-19 08:16N 37°42' W 000°24'312.4
2017-Nov-19 08:00N 37°40' W 000°26'2112.1
2017-Nov-19 06:17N 37°24' W 000°44'411.8
2017-Nov-19 05:57N 37°22' W 000°48'23211.7
2017-Nov-18 10:05N 35°59' W 005°18'113.3
2017-Nov-18 10:00N 35°59' W 005°19'  
2017-Nov-12 00:31N 28°28' W 016°15'0 0.0
2017-Nov-12 00:19N 28°28' W 016°15'0 0.0
2017-Nov-11 23:24N 28°28' W 016°15'0 0.0
2017-Nov-11 22:54N 28°28' W 016°15'0 0.0
2017-Nov-11 22:30N 28°28' W 016°15'0 0.0
2017-Nov-11 22:00N 28°28' W 016°15'0 0.0
2017-Nov-11 21:29N 28°28' W 016°15'0 0.0
2017-Nov-11 20:17N 28°28' W 016°15'0 0.0
2017-Nov-11 18:58N 28°28' W 016°15'0 0.0
2017-Nov-11 17:31N 28°28' W 016°15'0 0.0
2017-Nov-11 17:28N 28°28' W 016°15'0 0.0
2017-Nov-11 16:09N 28°28' W 016°15'0 0.0
2017-Nov-11 14:11N 28°28' W 016°15'0 0.0
2017-Nov-11 13:59N 28°28' W 016°15'0 0.0
2017-Nov-11 13:29N 28°28' W 016°15'0 0.0
2017-Nov-11 12:59N 28°28' W 016°15'0 0.0
2017-Nov-11 12:29N 28°28' W 016°15'0 0.0
2017-Nov-11 11:58N 28°28' W 016°15'0 0.0
2017-Nov-11 11:28N 28°28' W 016°15'0 0.0
2017-Nov-11 10:55N 28°28' W 016°15'0 0.0
2017-Nov-11 10:28N 28°28' W 016°15'18 0.5
2017-Nov-09 22:41N 28°21' W 015°56'7 8.0
2017-Nov-09 21:45N 28°15' W 015°51'311.5
2017-Nov-09 21:30N 28°15' W 015°47'611.4
2017-Nov-09 21:00N 28°15' W 015°41'611.2
2017-Nov-09 20:30N 28°15' W 015°35'611.6
2017-Nov-09 20:00N 28°15' W 015°28'611.4
2017-Nov-09 19:30N 28°15' W 015°22'5 9.9
2017-Nov-09 19:00N 28°11' W 015°22'4 8.1
2017-Nov-09 18:30N 28°07' W 015°23'5 9.8
2017-Nov-09 18:00N 28°02' W 015°22'510.2
2017-Nov-09 17:30N 27°57' W 015°20'  

Dump ship's entire track history